Time;durP1;ratioP1;P1;durP2;ratioP2;P2;SDS_P1;SDS_P2;PMS_P1;PMS_P2;Temp;Humidity;BMP_temperature;BMP_pressure;BME280_temperature;BME280_humidity;BME280_pressure;Samples;Min_cycle;Max_cycle;Signal;HPM_P1;HPM_P2
2021/06/13 00:00:39;;;;;;;11.33;6.23;;;;;;;16.73;nan;97331.81;3531207;40;20822;-73
2021/06/13 00:03:06;;;;;;;8.70;5.60;;;;;;;16.88;nan;97335.03;3530217;40;20538;-71
2021/06/13 00:05:34;;;;;;;13.33;6.90;;;;;;;16.84;nan;97329.16;3528285;40;20590;-70
2021/06/13 00:08:01;;;;;;;9.57;5.33;;;;;;;16.82;nan;97328.44;3520530;40;20920;-71
2021/06/13 00:10:30;;;;;;;7.80;5.40;;;;;;;16.95;nan;97336.19;3510674;40;20466;-70
2021/06/13 00:12:57;;;;;;;11.40;5.80;;;;;;;16.80;nan;97327.72;3530562;40;20805;-71
2021/06/13 00:15:26;;;;;;;8.77;5.80;;;;;;;16.62;nan;97332.69;3530421;40;20834;-70
2021/06/13 00:17:54;;;;;;;8.27;5.70;;;;;;;16.64;nan;97330.78;3528494;40;20850;-70
2021/06/13 00:20:27;;;;;;;12.23;7.17;;;;;;;16.79;nan;97337.44;3528823;40;20469;-70
2021/06/13 00:22:55;;;;;;;8.63;6.30;;;;;;;16.78;nan;97338.41;3529989;40;21209;-70
2021/06/13 00:25:24;;;;;;;11.30;6.37;;;;;;;16.57;nan;97334.88;3529776;40;20858;-70
2021/06/13 00:27:52;;;;;;;8.80;6.30;;;;;;;16.60;nan;97330.19;3528645;40;21106;-71
2021/06/13 00:30:22;;;;;;;9.27;7.17;;;;;;;16.66;nan;97334.13;3528130;40;20473;-72
2021/06/13 00:32:57;;;;;;;14.50;6.97;;;;;;;16.71;nan;97331.94;3528140;40;20461;-70
2021/06/13 00:35:24;;;;;;;12.40;6.83;;;;;;;16.74;nan;97339.63;3519180;40;20457;-69
2021/06/13 00:37:52;;;;;;;11.13;7.07;;;;;;;16.60;nan;97331.97;3532366;40;20475;-69
2021/06/13 00:40:23;;;;;;;11.90;6.73;;;;;;;16.73;nan;97343.22;3526692;40;20698;-69
2021/06/13 00:42:51;;;;;;;9.33;6.23;;;;;;;16.72;nan;97340.69;3529659;40;20932;-74
2021/06/13 00:45:21;;;;;;;12.90;7.00;;;;;;;16.77;nan;97344.66;3527692;40;20601;-71
2021/06/13 00:47:49;;;;;;;8.53;5.63;;;;;;;16.83;nan;97339.84;3529272;40;20458;-72
2021/06/13 00:50:25;;;;;;;11.40;6.43;;;;;;;16.78;nan;97343.69;3530444;40;20505;-71
2021/06/13 00:52:52;;;;;;;12.10;6.33;;;;;;;16.79;nan;97344.53;3526204;40;20880;-71
2021/06/13 00:55:20;;;;;;;10.37;6.27;;;;;;;16.86;nan;97332.53;3525348;40;20472;-73
2021/06/13 00:57:47;;;;;;;11.90;6.00;;;;;;;16.82;nan;97333.75;3528046;40;20543;-72
2021/06/13 01:00:16;;;;;;;12.13;6.03;;;;;;;16.86;nan;97331.69;3529682;40;20547;-73
2021/06/13 01:02:45;;;;;;;9.90;6.40;;;;;;;16.75;nan;97330.72;3530135;40;20811;-73
2021/06/13 01:05:13;;;;;;;7.23;5.63;;;;;;;16.71;nan;97331.09;3528280;40;21151;-72
2021/06/13 01:07:48;;;;;;;9.13;5.50;;;;;;;16.58;nan;97316.25;3529340;40;20555;-69
2021/06/13 01:10:30;;;;;;;8.77;5.30;;;;;;;16.67;nan;97338.44;3526943;40;20820;-71
2021/06/13 01:13:02;;;;;;;7.80;5.10;;;;;;;16.56;nan;97335.81;3530440;40;20535;-70
2021/06/13 01:15:35;;;;;;;9.90;5.33;;;;;;;16.65;nan;97340.38;3530941;40;20575;-70
2021/06/13 01:18:07;;;;;;;9.93;5.47;;;;;;;16.41;nan;97340.56;3529086;40;20465;-70
2021/06/13 01:20:42;;;;;;;11.03;4.90;;;;;;;16.47;nan;97332.13;3527513;40;20508;-72
2021/06/13 01:23:43;;;;;;;12.27;5.50;;;;;;;16.46;nan;97335.72;3528573;40;21235;-71
2021/06/13 01:26:28;;;;;;;13.40;5.50;;;;;;;16.47;nan;97333.94;3528427;40;20538;-72
2021/06/13 01:28:59;;;;;;;12.00;5.50;;;;;;;16.23;nan;97328.81;3528080;40;20457;-71
2021/06/13 01:31:31;;;;;;;10.50;5.60;;;;;;;16.44;nan;97335.03;3515818;40;20850;-71
2021/06/13 01:34:01;;;;;;;24.00;6.00;;;;;;;16.32;nan;97330.72;3529829;40;20703;-69
2021/06/13 01:36:29;;;;;;;9.60;5.37;;;;;;;16.50;nan;97338.97;3531574;40;20448;-71
2021/06/13 01:38:58;;;;;;;11.20;5.60;;;;;;;16.51;nan;97327.44;3526160;40;20456;-69
2021/06/13 01:41:30;;;;;;;10.83;5.60;;;;;;;16.61;nan;97336.31;3529876;40;20450;-70
2021/06/13 01:44:00;;;;;;;8.60;5.57;;;;;;;16.67;nan;97341.09;3530555;40;20473;-71
2021/06/13 01:46:33;;;;;;;10.37;5.40;;;;;;;16.70;nan;97339.97;3530571;40;21007;-74
2021/06/13 01:49:02;;;;;;;7.93;4.90;;;;;;;16.61;nan;97336.31;3531778;40;20464;-74
2021/06/13 01:51:30;;;;;;;23.63;5.70;;;;;;;16.56;nan;97338.47;3529894;40;20555;-75
2021/06/13 01:54:00;;;;;;;17.03;5.60;;;;;;;16.68;nan;97334.84;3530631;40;20460;-73
2021/06/13 01:56:29;;;;;;;12.10;6.63;;;;;;;16.47;nan;97333.94;3528246;40;20845;-75
2021/06/13 01:58:59;;;;;;;9.70;5.80;;;;;;;16.49;nan;97334.66;3519827;40;20453;-75
2021/06/13 02:01:29;;;;;;;9.57;5.00;;;;;;;16.55;nan;97337.63;3535264;40;20643;-72
2021/06/13 02:03:59;;;;;;;14.37;5.60;;;;;;;16.54;nan;97337.75;3530505;40;20625;-73
2021/06/13 02:06:29;;;;;;;19.33;5.63;;;;;;;16.32;nan;97323.63;3530356;40;20759;-73
2021/06/13 02:08:59;;;;;;;16.63;5.67;;;;;;;16.19;nan;97330.88;3518010;40;20547;-73
2021/06/13 02:11:28;;;;;;;9.73;5.33;;;;;;;16.36;nan;97333.00;3530078;40;20532;-73
2021/06/13 02:13:57;;;;;;;9.70;5.10;;;;;;;16.17;nan;97330.16;3520504;40;20953;-72
2021/06/13 02:16:26;;;;;;;23.53;5.30;;;;;;;16.32;nan;97336.84;3529126;40;20858;-72
2021/06/13 02:18:56;;;;;;;14.73;5.30;;;;;;;16.17;nan;97322.22;3529725;40;20852;-74
2021/06/13 02:21:25;;;;;;;8.60;4.77;;;;;;;15.97;nan;97329.94;3514373;40;20470;-73
2021/06/13 02:23:54;;;;;;;11.13;4.60;;;;;;;16.05;nan;97325.84;3522282;40;20555;-74
2021/06/13 02:26:21;;;;;;;14.30;5.07;;;;;;;16.12;nan;97335.81;3533357;40;20557;-73
2021/06/13 02:28:53;;;;;;;17.10;5.13;;;;;;;16.03;nan;97333.88;3534018;40;20826;-73
2021/06/13 02:31:24;;;;;;;19.40;4.60;;;;;;;16.09;nan;97329.91;3532704;40;20445;-73
2021/06/13 02:33:55;;;;;;;12.23;5.13;;;;;;;16.14;nan;97333.88;3531380;40;20740;-72
2021/06/13 02:36:23;;;;;;;5.77;3.90;;;;;;;16.00;nan;97332.34;3530080;40;20552;-74
2021/06/13 02:38:53;;;;;;;11.53;4.47;;;;;;;15.68;nan;97336.63;3533721;40;20490;-73
2021/06/13 02:41:21;;;;;;;11.30;4.20;;;;;;;15.67;nan;97334.97;3531661;40;20547;-73
2021/06/13 02:43:49;;;;;;;17.77;4.37;;;;;;;15.74;nan;97344.09;3534468;40;20465;-75
2021/06/13 02:46:16;;;;;;;12.23;5.17;;;;;;;15.77;nan;97343.88;3531484;40;20754;-74
2021/06/13 02:48:44;;;;;;;7.67;4.07;;;;;;;15.80;nan;97343.66;3530611;40;20536;-74
2021/06/13 02:51:17;;;;;;;11.60;5.80;;;;;;;15.86;nan;97345.81;3531948;40;20467;-75
2021/06/13 02:53:47;;;;;;;11.90;4.53;;;;;;;15.81;nan;97346.13;3532651;40;20671;-74
2021/06/13 02:56:21;;;;;;;12.70;4.57;;;;;;;15.84;nan;97353.00;3533776;40;20734;-74
2021/06/13 02:58:59;;;;;;;7.00;4.40;;;;;;;15.89;nan;97350.00;3528371;40;20570;-74
2021/06/13 03:01:27;;;;;;;11.30;4.50;;;;;;;15.77;nan;97357.06;3529677;40;20480;-74
2021/06/13 03:03:57;;;;;;;8.07;4.00;;;;;;;15.78;nan;97353.50;3533218;40;20472;-74
2021/06/13 03:06:26;;;;;;;11.67;4.30;;;;;;;15.68;nan;97355.09;3531671;40;20664;-74
2021/06/13 03:08:54;;;;;;;10.10;4.60;;;;;;;15.89;nan;97357.91;3521753;40;20759;-74
2021/06/13 03:11:24;;;;;;;10.93;4.17;;;;;;;15.92;nan;97357.69;3531217;40;20457;-76
2021/06/13 03:13:52;;;;;;;18.33;4.83;;;;;;;15.86;nan;97358.16;3532837;40;20550;-74
2021/06/13 03:16:21;;;;;;;14.27;4.60;;;;;;;15.98;nan;97357.19;3534550;40;20449;-74
2021/06/13 03:18:51;;;;;;;9.27;3.83;;;;;;;15.72;nan;97362.69;3534471;40;20473;-74
2021/06/13 03:21:19;;;;;;;10.00;5.40;;;;;;;15.87;nan;97359.84;3529923;40;21095;-75
2021/06/13 03:23:48;;;;;;;10.57;5.00;;;;;;;16.00;nan;97364.03;3528809;40;20488;-72
2021/06/13 03:26:17;;;;;;;15.10;4.50;;;;;;;15.76;nan;97358.88;3531324;40;20523;-73
2021/06/13 03:28:47;;;;;;;12.43;4.80;;;;;;;15.88;nan;97366.81;3530346;40;20741;-72
2021/06/13 03:31:15;;;;;;;18.93;4.60;;;;;;;15.92;nan;97366.44;3532655;40;20798;-73
2021/06/13 03:33:44;;;;;;;9.60;3.67;;;;;;;15.96;nan;97372.34;3532261;40;20441;-73
2021/06/13 03:36:13;;;;;;;14.70;4.90;;;;;;;15.72;nan;97369.75;3527015;40;20445;-73
2021/06/13 03:38:43;;;;;;;8.93;5.03;;;;;;;15.65;nan;97374.69;3528726;40;20656;-73
2021/06/13 03:41:14;;;;;;;8.33;4.17;;;;;;;15.66;nan;97376.38;3531444;40;20538;-74
2021/06/13 03:43:42;;;;;;;14.83;4.63;;;;;;;15.96;nan;97373.16;3531028;40;21129;-74
2021/06/13 03:46:12;;;;;;;9.50;4.30;;;;;;;16.00;nan;97371.13;3529793;40;20442;-73
2021/06/13 03:48:42;;;;;;;7.53;4.40;;;;;;;16.21;nan;97381.81;3529668;40;20557;-74
2021/06/13 03:51:12;;;;;;;16.07;4.57;;;;;;;16.11;nan;97380.84;3532810;40;20742;-73
2021/06/13 03:53:47;;;;;;;10.20;4.60;;;;;;;16.09;nan;97377.47;3529726;40;20759;-73
2021/06/13 03:56:20;;;;;;;13.00;4.00;;;;;;;16.08;nan;97374.00;3533275;40;20880;-73
2021/06/13 03:58:49;;;;;;;11.10;4.80;;;;;;;16.12;nan;97388.66;3529418;40;20497;-75
2021/06/13 04:01:19;;;;;;;12.10;5.30;;;;;;;16.17;nan;97383.00;3531007;40;20465;-74
2021/06/13 04:03:48;;;;;;;9.37;4.67;;;;;;;15.93;nan;97381.31;3532451;40;21109;-75
2021/06/13 04:06:17;;;;;;;11.93;4.57;;;;;;;15.96;nan;97378.44;3532789;40;20925;-74
2021/06/13 04:08:46;;;;;;;9.03;4.67;;;;;;;16.06;nan;97388.31;3533164;40;21103;-74
2021/06/13 04:11:14;;;;;;;13.50;4.50;;;;;;;15.85;nan;97380.25;3532043;40;20454;-73
2021/06/13 04:13:45;;;;;;;11.10;5.47;;;;;;;16.01;nan;97393.94;3532289;40;20850;-73
2021/06/13 04:16:14;;;;;;;11.17;5.73;;;;;;;16.16;nan;97394.53;3531349;40;21208;-72
2021/06/13 04:18:43;;;;;;;9.67;5.33;;;;;;;16.04;nan;97385.78;3530395;40;20860;-71
2021/06/13 04:21:13;;;;;;;11.63;4.93;;;;;;;16.18;nan;97390.81;3532396;40;20773;-71
2021/06/13 04:23:42;;;;;;;13.10;6.60;;;;;;;16.28;nan;97400.66;3531473;40;20473;-72
2021/06/13 04:26:13;;;;;;;10.93;4.80;;;;;;;15.96;nan;97388.19;3522187;40;20486;-71
2021/06/13 04:28:41;;;;;;;8.87;5.40;;;;;;;15.74;nan;97413.63;3531339;40;20516;-72
2021/06/13 04:31:13;;;;;;;9.70;5.20;;;;;;;15.65;nan;97413.44;3533882;40;20816;-72
2021/06/13 04:33:43;;;;;;;10.23;6.07;;;;;;;15.75;nan;97404.72;3533767;40;20830;-73
2021/06/13 04:36:13;;;;;;;8.80;4.67;;;;;;;15.82;nan;97407.75;3531576;40;21099;-72
2021/06/13 04:38:41;;;;;;;7.90;5.23;;;;;;;15.89;nan;97422.13;3528481;40;20548;-72
2021/06/13 04:41:11;;;;;;;12.03;5.20;;;;;;;15.62;nan;97415.38;3531637;40;20445;-72
2021/06/13 04:43:40;;;;;;;12.70;4.97;;;;;;;15.73;nan;97419.00;3535162;40;20453;-72
2021/06/13 04:46:10;;;;;;;22.53;6.30;;;;;;;15.90;nan;97409.78;3529845;40;20834;-72
2021/06/13 04:48:40;;;;;;;10.90;4.57;;;;;;;15.67;nan;97399.16;3527227;40;20823;-72
2021/06/13 04:51:10;;;;;;;12.23;5.23;;;;;;;15.74;nan;97424.19;3529599;40;20850;-72
2021/06/13 04:54:15;;;;;;;12.37;4.93;;;;;;;15.62;nan;97422.41;3529167;40;20449;-71
2021/06/13 04:56:51;;;;;;;8.80;4.77;;;;;;;15.87;nan;97428.50;3519618;40;20477;-71
2021/06/13 04:59:21;;;;;;;11.37;4.20;;;;;;;15.83;nan;97427.91;3516441;40;20844;-72
2021/06/13 05:01:49;;;;;;;8.63;4.33;;;;;;;15.88;nan;97431.03;3513175;40;20517;-71
2021/06/13 05:04:20;;;;;;;11.80;4.93;;;;;;;15.92;nan;97424.56;3519538;40;20537;-71
2021/06/13 05:06:51;;;;;;;14.60;5.87;;;;;;;15.96;nan;97419.88;3529369;40;20453;-70
2021/06/13 05:09:24;;;;;;;14.23;5.43;;;;;;;16.03;nan;97421.06;3529146;40;20464;-71
2021/06/13 05:11:56;;;;;;;10.80;4.90;;;;;;;16.07;nan;97429.59;3526679;40;20864;-70
2021/06/13 05:14:25;;;;;;;12.03;4.70;;;;;;;16.09;nan;97431.19;3526988;40;20838;-70
2021/06/13 05:16:54;;;;;;;10.10;4.33;;;;;;;16.10;nan;97426.72;3520102;40;20523;-71
2021/06/13 05:19:24;;;;;;;11.00;4.90;;;;;;;16.29;nan;97424.31;3515759;40;21012;-71
2021/06/13 05:21:53;;;;;;;16.00;4.73;;;;;;;16.34;nan;97424.78;3530020;40;20779;-71
2021/06/13 05:24:22;;;;;;;9.90;4.30;;;;;;;16.10;nan;97432.00;3528840;40;20529;-71
2021/06/13 05:26:51;;;;;;;15.07;4.63;;;;;;;16.10;nan;97435.50;3530751;40;20513;-72
2021/06/13 05:29:20;;;;;;;14.63;4.53;;;;;;;16.09;nan;97444.38;3530366;40;20521;-69
2021/06/13 05:31:49;;;;;;;9.00;4.47;;;;;;;16.39;nan;97438.47;3531604;40;20845;-72
2021/06/13 05:34:18;;;;;;;9.90;4.20;;;;;;;16.28;nan;97441.13;3521352;40;20888;-72
2021/06/13 05:36:49;;;;;;;13.37;4.40;;;;;;;16.49;nan;97437.75;3530375;40;20441;-71
2021/06/13 05:39:18;;;;;;;16.10;4.87;;;;;;;16.40;nan;97440.16;3525765;40;20517;-70
2021/06/13 05:41:47;;;;;;;17.33;5.30;;;;;;;16.56;nan;97438.94;3518505;40;20490;-71
2021/06/13 05:44:16;;;;;;;10.47;4.40;;;;;;;16.91;nan;97448.53;3530147;40;20461;-71
2021/06/13 05:46:46;;;;;;;8.97;3.53;;;;;;;16.27;nan;97443.88;3532698;40;20515;-70
2021/06/13 05:49:16;;;;;;;9.80;4.30;;;;;;;16.45;nan;97441.63;3528511;40;20478;-71
2021/06/13 05:51:46;;;;;;;13.47;4.20;;;;;;;16.90;nan;97450.34;3530157;40;20462;-71
2021/06/13 05:54:16;;;;;;;10.07;3.60;;;;;;;16.67;nan;97452.16;3531389;40;20712;-71
2021/06/13 05:56:46;;;;;;;8.07;3.10;;;;;;;17.03;nan;97447.50;3522897;40;20757;-71
2021/06/13 05:59:14;;;;;;;6.97;3.00;;;;;;;17.28;nan;97458.75;3534229;40;20495;-70
2021/06/13 06:01:45;;;;;;;7.60;3.20;;;;;;;17.67;nan;97456.41;3526922;40;20469;-71
2021/06/13 06:04:14;;;;;;;13.03;3.80;;;;;;;17.58;nan;97458.84;3523438;40;20509;-71
2021/06/13 06:06:44;;;;;;;6.00;3.20;;;;;;;17.69;nan;97459.75;3532562;40;21281;-73
2021/06/13 06:09:13;;;;;;;9.40;2.63;;;;;;;17.91;nan;97459.63;3537968;40;20753;-71
2021/06/13 06:11:45;;;;;;;10.47;3.30;;;;;;;18.17;nan;97433.56;3531872;40;20851;-72
2021/06/13 06:14:14;;;;;;;9.07;3.60;;;;;;;18.29;nan;97460.00;3527760;40;20463;-72
2021/06/13 06:16:44;;;;;;;8.10;2.73;;;;;;;18.35;nan;97449.69;3519791;40;20468;-73
2021/06/13 06:19:13;;;;;;;10.73;3.03;;;;;;;18.68;nan;97458.31;3531068;40;20469;-72
2021/06/13 06:21:40;;;;;;;6.93;2.70;;;;;;;18.89;nan;97452.94;3533063;40;20552;-72
2021/06/13 06:24:09;;;;;;;76.47;38.20;;;;;;;18.80;nan;97455.56;3530954;40;20449;-71
2021/06/13 06:26:37;;;;;;;18.83;8.00;;;;;;;19.04;nan;97453.38;3531195;40;20488;-71
2021/06/13 06:29:06;;;;;;;10.17;3.67;;;;;;;18.36;nan;97467.25;3531210;40;20462;-72
2021/06/13 06:31:35;;;;;;;9.10;3.23;;;;;;;18.58;nan;97463.59;3519498;40;20489;-70
2021/06/13 06:34:03;;;;;;;12.87;3.60;;;;;;;18.32;nan;97465.84;3528339;40;20472;-70
2021/06/13 06:36:31;;;;;;;7.83;2.73;;;;;;;19.07;nan;97462.88;3532606;40;20490;-71
2021/06/13 06:38:59;;;;;;;7.00;2.30;;;;;;;19.28;nan;97465.41;3521396;40;20554;-71
2021/06/13 06:41:28;;;;;;;20.30;2.70;;;;;;;19.34;nan;97463.03;3527603;40;20445;-71
2021/06/13 06:43:56;;;;;;;9.50;3.20;;;;;;;19.38;nan;97471.56;3531020;40;20452;-72
2021/06/13 06:46:26;;;;;;;7.70;3.00;;;;;;;19.54;nan;97471.84;3530968;40;20759;-69
2021/06/13 06:48:54;;;;;;;13.00;3.10;;;;;;;19.88;nan;97479.41;3530879;40;20833;-71
2021/06/13 06:51:21;;;;;;;6.30;2.60;;;;;;;19.45;nan;97467.38;3528629;40;20438;-72
2021/06/13 06:53:50;;;;;;;7.33;2.60;;;;;;;19.51;nan;97479.25;3524382;40;20464;-71
2021/06/13 06:56:18;;;;;;;8.27;3.17;;;;;;;19.06;nan;97480.63;3530443;40;20508;-69
2021/06/13 06:58:46;;;;;;;11.63;3.20;;;;;;;18.98;nan;97495.56;3533844;40;20853;-71
2021/06/13 07:01:14;;;;;;;11.90;2.70;;;;;;;19.30;nan;97490.84;3521125;40;20493;-71
2021/06/13 07:03:43;;;;;;;7.80;2.83;;;;;;;19.83;nan;97497.56;3530471;40;20774;-72
2021/06/13 07:06:11;;;;;;;6.97;2.50;;;;;;;19.61;nan;97497.84;3529648;40;20485;-71
2021/06/13 07:08:39;;;;;;;9.70;3.30;;;;;;;19.69;nan;97500.66;3530266;40;20450;-71
2021/06/13 07:11:07;;;;;;;9.30;3.40;;;;;;;19.43;nan;97501.22;3531814;40;20461;-72
2021/06/13 07:13:36;;;;;;;19.93;3.50;;;;;;;20.22;nan;97507.31;3536500;40;20449;-71
2021/06/13 07:16:04;;;;;;;27.20;12.40;;;;;;;20.23;nan;97509.84;3531619;40;20437;-72
2021/06/13 07:18:32;;;;;;;30.43;20.63;;;;;;;20.28;nan;97515.53;3521787;40;20484;-71
2021/06/13 07:21:01;;;;;;;6.17;3.20;;;;;;;20.32;nan;97506.28;3534437;40;20773;-72
2021/06/13 07:23:29;;;;;;;13.40;3.70;;;;;;;20.52;nan;97509.75;3531797;40;20441;-72
2021/06/13 07:26:00;;;;;;;9.37;3.40;;;;;;;20.05;nan;97512.41;3533151;40;20500;-72
2021/06/13 07:28:29;;;;;;;8.37;3.50;;;;;;;19.86;nan;97515.09;3528542;40;20830;-71
2021/06/13 07:30:57;;;;;;;6.57;3.17;;;;;;;20.61;nan;97518.69;3520756;40;20465;-72
2021/06/13 07:33:25;;;;;;;7.80;3.60;;;;;;;19.91;nan;97511.00;3533868;40;20888;-73
2021/06/13 07:35:54;;;;;;;8.03;3.10;;;;;;;20.64;nan;97515.75;3535871;40;20919;-72
2021/06/13 07:38:24;;;;;;;11.47;3.60;;;;;;;20.62;nan;97524.84;3529906;40;20501;-72
2021/06/13 07:40:54;;;;;;;14.73;2.90;;;;;;;21.15;nan;97518.84;3529910;40;20469;-71
2021/06/13 07:43:22;;;;;;;9.03;3.40;;;;;;;19.63;nan;97519.81;3532685;40;20544;-75
2021/06/13 07:45:52;;;;;;;11.63;4.00;;;;;;;19.86;nan;97525.72;3532934;40;20886;-75
2021/06/13 07:48:20;;;;;;;8.70;3.00;;;;;;;20.82;nan;97528.28;3535699;40;20449;-75
2021/06/13 07:50:48;;;;;;;8.77;2.90;;;;;;;21.59;nan;97526.13;3530913;40;20488;-75
2021/06/13 07:53:16;;;;;;;5.87;2.80;;;;;;;22.08;nan;97523.88;3530116;40;20472;-73
2021/06/13 07:55:47;;;;;;;14.47;3.90;;;;;;;21.78;nan;97531.31;3520357;40;20716;-74
2021/06/13 07:58:15;;;;;;;13.67;3.50;;;;;;;22.16;nan;97537.28;3522325;40;20442;-74
2021/06/13 08:00:43;;;;;;;11.03;3.63;;;;;;;22.04;nan;97534.00;3521779;40;20572;-73
2021/06/13 08:03:11;;;;;;;12.80;3.70;;;;;;;21.48;nan;97532.53;3519679;40;20496;-74
2021/06/13 08:05:39;;;;;;;10.47;3.20;;;;;;;20.92;nan;97542.38;3518799;40;20587;-74
2021/06/13 08:08:07;;;;;;;10.70;3.23;;;;;;;21.05;nan;97540.22;3517831;40;20498;-75
2021/06/13 08:10:35;;;;;;;9.03;3.43;;;;;;;20.68;nan;97527.78;3521756;40;20943;-74
2021/06/13 08:13:05;;;;;;;10.47;4.80;;;;;;;20.07;nan;97536.16;3524351;40;20450;-75
2021/06/13 08:15:33;;;;;;;22.23;13.43;;;;;;;20.07;nan;97526.38;3518388;40;20823;-72
2021/06/13 08:18:01;;;;;;;11.80;3.27;;;;;;;20.28;nan;97528.84;3520952;40;20574;-74
2021/06/13 08:20:29;;;;;;;9.77;3.13;;;;;;;20.95;nan;97531.41;3525044;40;20459;-73
2021/06/13 08:22:57;;;;;;;10.87;3.30;;;;;;;21.89;nan;97527.56;3520602;40;20446;-74
2021/06/13 08:25:26;;;;;;;8.53;2.73;;;;;;;21.80;nan;97529.34;3521498;40;20873;-75
2021/06/13 08:27:55;;;;;;;6.97;3.13;;;;;;;21.87;nan;97527.72;3520662;40;20548;-72
2021/06/13 08:30:25;;;;;;;9.20;3.80;;;;;;;19.97;nan;97514.06;3516777;40;20943;-72
2021/06/13 08:32:53;;;;;;;8.00;3.37;;;;;;;20.46;nan;97520.94;3520093;40;20836;-71
2021/06/13 08:35:22;;;;;;;12.60;3.17;;;;;;;21.27;nan;97516.81;3523344;40;20780;-71
2021/06/13 08:37:50;;;;;;;7.20;3.50;;;;;;;21.46;nan;97524.69;3523692;40;20871;-74
2021/06/13 08:40:18;;;;;;;6.10;3.10;;;;;;;22.41;nan;97511.63;3526385;40;20762;-73
2021/06/13 08:42:47;;;;;;;6.27;3.03;;;;;;;22.37;nan;97517.44;3519832;40;20843;-72
2021/06/13 08:45:15;;;;;;;10.20;3.50;;;;;;;22.27;nan;97529.06;3520661;40;20776;-72
2021/06/13 08:47:46;;;;;;;10.33;2.90;;;;;;;22.28;nan;97512.03;3520356;40;20515;-72
2021/06/13 08:50:14;;;;;;;12.90;2.70;;;;;;;22.61;nan;97522.91;3522662;40;20546;-73
2021/06/13 08:52:42;;;;;;;6.73;2.70;;;;;;;22.41;nan;97524.97;3519986;40;20477;-73
2021/06/13 08:55:11;;;;;;;8.20;2.93;;;;;;;21.61;nan;97522.31;3519825;40;20559;-73
2021/06/13 08:57:39;;;;;;;6.63;3.03;;;;;;;22.15;nan;97527.63;3528058;40;20453;-73
2021/06/13 09:00:10;;;;;;;7.43;2.70;;;;;;;22.36;nan;97521.94;3529760;40;20469;-74
2021/06/13 09:02:38;;;;;;;8.53;3.23;;;;;;;21.71;nan;97525.75;3522835;40;20473;-73
2021/06/13 09:05:09;;;;;;;11.10;6.57;;;;;;;22.14;nan;97523.25;3521860;40;20539;-71
2021/06/13 09:07:48;;;;;;;21.57;14.20;;;;;;;22.65;nan;97526.09;3532563;40;20472;-73
2021/06/13 09:10:19;;;;;;;7.77;2.60;;;;;;;22.68;nan;97518.63;3532735;40;20563;-73
2021/06/13 09:12:47;;;;;;;3.83;2.10;;;;;;;23.36;nan;97524.03;3523286;40;20477;-72
2021/06/13 09:15:17;;;;;;;4.20;2.50;;;;;;;20.66;nan;97523.56;3533871;40;20462;-72
2021/06/13 09:17:46;;;;;;;6.60;2.80;;;;;;;21.85;nan;97524.34;3532631;40;20494;-73
2021/06/13 09:20:22;;;;;;;3.90;1.93;;;;;;;22.87;nan;97525.56;3519354;40;20850;-73
2021/06/13 09:23:09;;;;;;;11.63;3.23;;;;;;;23.91;nan;97520.78;3529776;40;20473;-73
2021/06/13 09:25:40;;;;;;;5.97;2.70;;;;;;;23.47;nan;97521.91;3529648;40;20481;-73
2021/06/13 09:28:11;;;;;;;12.23;2.27;;;;;;;23.41;nan;97522.56;3534054;40;20784;-73
2021/06/13 09:30:44;;;;;;;4.87;2.27;;;;;;;24.00;nan;97521.63;3529120;40;20912;-73
2021/06/13 09:33:17;;;;;;;57.23;25.27;;;;;;;24.34;nan;97515.22;3529716;40;20862;-73
2021/06/13 09:35:48;;;;;;;8.33;5.00;;;;;;;23.69;nan;97520.41;3527165;40;20559;-74
2021/06/13 09:38:19;;;;;;;8.13;2.70;;;;;;;24.07;nan;97519.94;3532092;40;20895;-76
2021/06/13 09:40:57;;;;;;;7.13;2.43;;;;;;;23.49;nan;97509.19;3533144;40;20931;-72
2021/06/13 09:43:29;;;;;;;12.93;2.97;;;;;;;24.12;nan;97519.44;3529246;40;21011;-74
2021/06/13 09:46:01;;;;;;;4.20;1.73;;;;;;;23.97;nan;97532.66;3528238;40;20872;-74
2021/06/13 09:48:30;;;;;;;4.17;2.27;;;;;;;23.76;nan;97533.16;3529457;40;20564;-73
2021/06/13 09:51:04;;;;;;;4.13;2.60;;;;;;;21.09;nan;97538.91;3533284;40;20437;-73
2021/06/13 09:53:43;;;;;;;9.07;2.80;;;;;;;23.07;nan;97533.31;3531709;40;20442;-73
2021/06/13 09:56:18;;;;;;;9.70;2.87;;;;;;;23.70;nan;97518.59;3518974;40;20485;-73
2021/06/13 09:58:55;;;;;;;6.07;2.17;;;;;;;23.48;nan;97538.75;3529269;40;20539;-73
2021/06/13 10:01:26;;;;;;;5.93;2.30;;;;;;;23.36;nan;97540.91;3530612;40;20454;-73
2021/06/13 10:03:54;;;;;;;4.63;1.80;;;;;;;23.48;nan;97538.75;3532004;40;20695;-73
2021/06/13 10:06:28;;;;;;;10.90;2.40;;;;;;;23.71;nan;97533.63;3527791;40;20721;-73
2021/06/13 10:08:57;;;;;;;8.17;2.57;;;;;;;23.53;nan;97540.97;3527241;40;20465;-72
2021/06/13 10:11:26;;;;;;;10.90;2.50;;;;;;;24.06;nan;97537.84;3521705;40;20474;-74
2021/06/13 10:13:59;;;;;;;6.17;2.33;;;;;;;24.66;nan;97536.59;3531483;40;21142;-76
2021/06/13 10:16:36;;;;;;;8.67;2.03;;;;;;;24.78;nan;97537.06;3529371;40;20968;-74
2021/06/13 10:19:07;;;;;;;5.43;1.90;;;;;;;24.47;nan;97536.97;3530420;40;20444;-72
2021/06/13 10:21:38;;;;;;;7.43;1.93;;;;;;;25.52;nan;97538.56;3529777;40;20856;-73
2021/06/13 10:24:10;;;;;;;13.20;2.00;;;;;;;25.62;nan;97539.22;3521164;40;20558;-73
2021/06/13 10:26:40;;;;;;;6.20;2.07;;;;;;;25.85;nan;97529.31;3531914;40;20460;-74
2021/06/13 10:29:10;;;;;;;4.73;1.80;;;;;;;25.17;nan;97524.66;3532778;40;20470;-73
2021/06/13 10:31:38;;;;;;;5.23;1.87;;;;;;;25.24;nan;97531.88;3530776;40;20476;-73
2021/06/13 10:34:07;;;;;;;3.10;1.63;;;;;;;24.48;nan;97519.88;3530516;40;20802;-72
2021/06/13 10:36:40;;;;;;;5.57;1.73;;;;;;;24.98;nan;97531.31;3529965;40;20458;-74
2021/06/13 10:39:09;;;;;;;3.13;1.60;;;;;;;25.34;nan;97533.50;3527440;40;20852;-73
2021/06/13 10:41:37;;;;;;;5.97;1.60;;;;;;;25.22;nan;97522.34;3532783;40;20441;-71
2021/06/13 10:44:07;;;;;;;5.47;2.00;;;;;;;25.24;nan;97526.50;3532371;40;20469;-72
2021/06/13 10:46:37;;;;;;;7.23;2.20;;;;;;;26.19;nan;97527.22;3522266;40;21106;-72
2021/06/13 10:49:09;;;;;;;6.60;2.07;;;;;;;24.78;nan;97523.69;3531040;40;20750;-72
2021/06/13 10:51:43;;;;;;;7.53;1.63;;;;;;;26.32;nan;97529.25;3533100;40;20841;-72
2021/06/13 10:54:35;;;;;;;38.83;26.67;;;;;;;26.77;nan;97505.97;3531638;40;20457;-71
2021/06/13 10:57:39;;;;;;;3.13;1.50;;;;;;;26.51;nan;97517.16;3533648;40;21133;-71
2021/06/13 11:00:32;;;;;;;6.03;1.30;;;;;;;25.41;nan;97511.16;3515756;40;20698;-71
2021/06/13 11:03:03;;;;;;;3.97;1.60;;;;;;;24.85;nan;97516.63;3532533;40;21215;-71
2021/06/13 11:05:44;;;;;;;5.13;1.70;;;;;;;26.64;nan;97517.38;3531281;40;20543;-72
2021/06/13 11:08:14;;;;;;;4.20;1.37;;;;;;;26.57;nan;97514.56;3532287;40;20710;-71
2021/06/13 11:10:43;;;;;;;2.80;1.10;;;;;;;25.23;nan;97513.31;3530307;40;20477;-72
2021/06/13 11:13:21;;;;;;;5.57;1.57;;;;;;;25.77;nan;97510.56;3529782;40;20845;-72
2021/06/13 11:15:51;;;;;;;4.37;1.77;;;;;;;25.23;nan;97507.94;3530244;40;20495;-73
2021/06/13 11:18:26;;;;;;;5.60;2.97;;;;;;;25.48;nan;97502.41;3529065;40;20776;-72
2021/06/13 11:21:05;;;;;;;4.40;1.43;;;;;;;24.61;nan;97506.00;3518579;40;21114;-72
2021/06/13 11:23:46;;;;;;;4.70;2.07;;;;;;;24.57;nan;97507.34;3528644;40;20465;-72
2021/06/13 11:26:40;;;;;;;1.47;0.90;;;;;;;26.06;nan;97502.84;3532457;40;20527;-72
2021/06/13 11:29:13;;;;;;;4.77;1.40;;;;;;;26.42;nan;97508.34;3530697;40;20862;-72
2021/06/13 11:31:47;;;;;;;6.73;1.30;;;;;;;24.90;nan;97507.25;3530138;40;20896;-71
2021/06/13 11:34:15;;;;;;;3.00;1.27;;;;;;;25.58;nan;97498.50;3528109;40;20854;-72
2021/06/13 11:36:43;;;;;;;6.40;2.13;;;;;;;26.09;nan;97497.94;3529776;40;20449;-72
2021/06/13 11:39:25;;;;;;;2.10;1.33;;;;;;;27.55;nan;97499.06;3521258;40;20900;-71
2021/06/13 11:42:08;;;;;;;3.63;1.30;;;;;;;26.50;nan;97505.59;3533382;40;20457;-71
2021/06/13 11:44:42;;;;;;;2.50;1.23;;;;;;;26.84;nan;97512.28;3530244;40;20476;-71
2021/06/13 11:47:35;;;;;;;5.90;1.80;;;;;;;27.88;nan;97503.13;3528475;40;20939;-71
2021/06/13 11:50:13;;;;;;;3.53;1.20;;;;;;;27.46;nan;97502.06;3530039;40;20750;-72
2021/06/13 11:52:50;;;;;;;3.87;1.50;;;;;;;25.38;nan;97495.44;3531695;40;20458;-71
2021/06/13 11:55:19;;;;;;;4.67;1.27;;;;;;;26.41;nan;97495.94;3533629;40;20851;-72
2021/06/13 11:57:47;;;;;;;6.47;1.10;;;;;;;27.02;nan;97488.53;3531815;40;20549;-71
2021/06/13 12:00:17;;;;;;;4.27;1.10;;;;;;;26.31;nan;97498.06;3530021;40;20566;-72
2021/06/13 12:02:45;;;;;;;5.80;1.47;;;;;;;27.48;nan;97487.44;3531243;40;20532;-72